sensor_id;sensor_type;location;lat;lon;timestamp;pressure;altitude;pressure_sealevel;temperature;humidity
15263;BME280;7733;51.554;13.590;2022-09-28T00:01:09;98748.66;;;10.07;100.00
15263;BME280;7733;51.554;13.590;2022-09-28T00:03:38;98739.63;;;9.92;100.00
15263;BME280;7733;51.554;13.590;2022-09-28T00:06:08;98735.75;;;10.02;100.00
15263;BME280;7733;51.554;13.590;2022-09-28T00:08:35;98734.53;;;10.11;100.00
15263;BME280;7733;51.554;13.590;2022-09-28T00:11:03;98734.97;;;10.24;100.00
15263;BME280;7733;51.554;13.590;2022-09-28T00:13:29;98732.38;;;9.99;100.00
15263;BME280;7733;51.554;13.590;2022-09-28T00:16:04;98732.22;;;10.27;100.00
15263;BME280;7733;51.554;13.590;2022-09-28T00:18:30;98729.47;;;10.06;100.00
15263;BME280;7733;51.554;13.590;2022-09-28T00:21:01;98732.69;;;9.68;100.00
15263;BME280;7733;51.554;13.590;2022-09-28T00:23:27;98731.84;;;9.67;100.00
15263;BME280;7733;51.554;13.590;2022-09-28T00:25:52;98726.25;;;9.53;100.00
15263;BME280;7733;51.554;13.590;2022-09-28T00:28:18;98726.38;;;9.73;100.00
15263;BME280;7733;51.554;13.590;2022-09-28T00:30:43;98718.34;;;9.55;100.00
15263;BME280;7733;51.554;13.590;2022-09-28T00:33:09;98721.44;;;9.41;100.00
15263;BME280;7733;51.554;13.590;2022-09-28T00:35:35;98718.09;;;9.61;100.00
15263;BME280;7733;51.554;13.590;2022-09-28T00:38:00;98715.84;;;9.75;100.00
15263;BME280;7733;51.554;13.590;2022-09-28T00:40:28;98709.47;;;9.59;100.00
15263;BME280;7733;51.554;13.590;2022-09-28T00:42:54;98704.88;;;9.42;100.00
15263;BME280;7733;51.554;13.590;2022-09-28T00:45:22;98709.47;;;9.59;100.00
15263;BME280;7733;51.554;13.590;2022-09-28T00:47:57;98705.81;;;9.39;100.00
15263;BME280;7733;51.554;13.590;2022-09-28T00:50:28;98703.78;;;9.71;100.00
15263;BME280;7733;51.554;13.590;2022-09-28T00:53:08;98703.09;;;9.66;100.00
15263;BME280;7733;51.554;13.590;2022-09-28T00:55:54;98701.84;;;9.76;100.00
15263;BME280;7733;51.554;13.590;2022-09-28T00:58:29;98697.34;;;9.56;100.00
15263;BME280;7733;51.554;13.590;2022-09-28T01:00:57;98692.06;;;9.81;100.00
15263;BME280;7733;51.554;13.590;2022-09-28T01:03:25;98697.81;;;9.67;100.00
15263;BME280;7733;51.554;13.590;2022-09-28T01:05:54;98694.63;;;9.83;100.00
15263;BME280;7733;51.554;13.590;2022-09-28T01:08:22;98690.88;;;9.66;100.00
15263;BME280;7733;51.554;13.590;2022-09-28T01:10:52;98693.31;;;9.71;100.00
15263;BME280;7733;51.554;13.590;2022-09-28T01:13:19;98702.03;;;9.93;100.00
15263;BME280;7733;51.554;13.590;2022-09-28T01:25:39;98687.38;;;9.89;100.00
15263;BME280;7733;51.554;13.590;2022-09-28T01:28:14;98675.72;;;9.96;100.00
15263;BME280;7733;51.554;13.590;2022-09-28T01:33:54;98682.16;;;9.66;100.00
15263;BME280;7733;51.554;13.590;2022-09-28T01:36:27;98675.44;;;9.59;100.00
15263;BME280;7733;51.554;13.590;2022-09-28T01:39:06;98674.97;;;9.71;100.00
15263;BME280;7733;51.554;13.590;2022-09-28T01:41:34;98668.50;;;9.81;100.00
15263;BME280;7733;51.554;13.590;2022-09-28T01:44:07;98669.34;;;9.82;100.00
15263;BME280;7733;51.554;13.590;2022-09-28T01:46:40;98666.53;;;9.86;100.00
15263;BME280;7733;51.554;13.590;2022-09-28T01:49:21;98667.13;;;9.71;100.00
15263;BME280;7733;51.554;13.590;2022-09-28T01:51:58;98668.09;;;9.68;100.00
15263;BME280;7733;51.554;13.590;2022-09-28T01:54:42;98666.53;;;9.64;100.00
15263;BME280;7733;51.554;13.590;2022-09-28T01:57:21;98667.25;;;9.68;100.00
15263;BME280;7733;51.554;13.590;2022-09-28T02:00:02;98667.19;;;9.69;100.00
15263;BME280;7733;51.554;13.590;2022-09-28T02:02:36;98664.47;;;9.49;100.00
15263;BME280;7733;51.554;13.590;2022-09-28T02:05:12;98652.88;;;9.78;100.00
15263;BME280;7733;51.554;13.590;2022-09-28T02:11:15;98656.09;;;9.39;100.00
15263;BME280;7733;51.554;13.590;2022-09-28T02:13:54;98648.75;;;9.72;100.00
15263;BME280;7733;51.554;13.590;2022-09-28T02:16:39;98650.78;;;9.42;100.00
15263;BME280;7733;51.554;13.590;2022-09-28T02:19:19;98653.22;;;9.47;100.00
15263;BME280;7733;51.554;13.590;2022-09-28T02:28:06;98644.72;;;9.64;100.00
15263;BME280;7733;51.554;13.590;2022-09-28T02:30:36;98644.56;;;9.45;100.00
15263;BME280;7733;51.554;13.590;2022-09-28T02:33:16;98643.03;;;9.63;100.00
15263;BME280;7733;51.554;13.590;2022-09-28T02:35:42;98638.00;;;9.57;100.00
15263;BME280;7733;51.554;13.590;2022-09-28T02:38:13;98643.31;;;9.32;100.00
15263;BME280;7733;51.554;13.590;2022-09-28T02:40:43;98636.00;;;9.40;100.00
15263;BME280;7733;51.554;13.590;2022-09-28T02:46:29;98633.75;;;9.54;100.00
15263;BME280;7733;51.554;13.590;2022-09-28T02:49:24;98635.94;;;9.43;100.00
15263;BME280;7733;51.554;13.590;2022-09-28T02:52:25;98634.13;;;9.20;100.00
15263;BME280;7733;51.554;13.590;2022-09-28T02:58:04;98636.00;;;8.93;100.00
15263;BME280;7733;51.554;13.590;2022-09-28T03:00:44;98636.13;;;9.13;100.00
15263;BME280;7733;51.554;13.590;2022-09-28T03:03:26;98639.41;;;8.95;100.00
15263;BME280;7733;51.554;13.590;2022-09-28T03:06:36;98628.78;;;9.00;100.00
15263;BME280;7733;51.554;13.590;2022-09-28T03:09:23;98631.16;;;8.82;100.00
15263;BME280;7733;51.554;13.590;2022-09-28T03:11:58;98623.84;;;9.15;100.00
15263;BME280;7733;51.554;13.590;2022-09-28T03:14:25;98624.16;;;9.08;100.00
15263;BME280;7733;51.554;13.590;2022-09-28T03:16:50;98616.28;;;8.84;100.00
15263;BME280;7733;51.554;13.590;2022-09-28T03:19:22;98617.56;;;9.21;100.00
15263;BME280;7733;51.554;13.590;2022-09-28T03:21:49;98604.75;;;9.59;100.00
15263;BME280;7733;51.554;13.590;2022-09-28T03:24:14;98604.16;;;9.52;100.00
15263;BME280;7733;51.554;13.590;2022-09-28T03:26:40;98609.34;;;9.30;100.00
15263;BME280;7733;51.554;13.590;2022-09-28T03:29:06;98600.34;;;9.37;100.00
15263;BME280;7733;51.554;13.590;2022-09-28T03:31:31;98603.81;;;9.38;100.00
15263;BME280;7733;51.554;13.590;2022-09-28T03:33:57;98605.09;;;9.28;100.00
15263;BME280;7733;51.554;13.590;2022-09-28T03:36:23;98602.19;;;9.35;100.00
15263;BME280;7733;51.554;13.590;2022-09-28T03:38:51;98600.47;;;9.34;100.00
15263;BME280;7733;51.554;13.590;2022-09-28T03:41:19;98600.34;;;9.37;100.00
15263;BME280;7733;51.554;13.590;2022-09-28T03:43:46;98598.44;;;9.42;100.00
15263;BME280;7733;51.554;13.590;2022-09-28T03:46:12;98597.53;;;9.43;100.00
15263;BME280;7733;51.554;13.590;2022-09-28T03:48:39;98593.41;;;9.36;100.00
15263;BME280;7733;51.554;13.590;2022-09-28T03:51:06;98599.75;;;9.31;100.00
15263;BME280;7733;51.554;13.590;2022-09-28T03:53:35;98591.84;;;9.32;100.00
15263;BME280;7733;51.554;13.590;2022-09-28T03:56:03;98587.75;;;9.25;100.00
15263;BME280;7733;51.554;13.590;2022-09-28T03:58:29;98588.25;;;9.11;100.00
15263;BME280;7733;51.554;13.590;2022-09-28T04:01:05;98588.38;;;9.08;100.00
15263;BME280;7733;51.554;13.590;2022-09-28T04:03:31;98588.94;;;8.93;100.00
15263;BME280;7733;51.554;13.590;2022-09-28T04:05:57;98586.75;;;9.06;100.00
15263;BME280;7733;51.554;13.590;2022-09-28T04:08:23;98588.56;;;9.04;100.00
15263;BME280;7733;51.554;13.590;2022-09-28T04:10:48;98586.75;;;9.06;100.00
15263;BME280;7733;51.554;13.590;2022-09-28T04:13:14;98594.53;;;8.33;100.00
15263;BME280;7733;51.554;13.590;2022-09-28T04:15:40;98594.50;;;8.59;100.00
15263;BME280;7733;51.554;13.590;2022-09-28T04:18:11;98600.38;;;8.66;100.00
15263;BME280;7733;51.554;13.590;2022-09-28T04:20:36;98586.25;;;8.95;100.00
15263;BME280;7733;51.554;13.590;2022-09-28T04:23:05;98595.91;;;8.69;100.00
15263;BME280;7733;51.554;13.590;2022-09-28T04:25:30;98591.03;;;8.83;100.00
15263;BME280;7733;51.554;13.590;2022-09-28T04:27:56;98585.22;;;8.75;100.00
15263;BME280;7733;51.554;13.590;2022-09-28T04:30:40;98591.41;;;8.73;100.00
15263;BME280;7733;51.554;13.590;2022-09-28T04:33:06;98592.72;;;8.61;100.00
15263;BME280;7733;51.554;13.590;2022-09-28T04:35:31;98589.41;;;8.79;100.00
15263;BME280;7733;51.554;13.590;2022-09-28T04:37:57;98586.78;;;9.04;100.00
15263;BME280;7733;51.554;13.590;2022-09-28T04:40:23;98582.34;;;9.06;100.00
15263;BME280;7733;51.554;13.590;2022-09-28T04:42:53;98579.81;;;9.05;100.00
15263;BME280;7733;51.554;13.590;2022-09-28T04:45:19;98580.91;;;8.98;100.00
15263;BME280;7733;51.554;13.590;2022-09-28T04:47:45;98577.25;;;8.78;100.00
15263;BME280;7733;51.554;13.590;2022-09-28T04:50:11;98566.59;;;9.08;100.00
15263;BME280;7733;51.554;13.590;2022-09-28T04:52:36;98560.44;;;9.32;100.00
15263;BME280;7733;51.554;13.590;2022-09-28T04:55:04;98565.81;;;9.51;100.00
15263;BME280;7733;51.554;13.590;2022-09-28T04:57:33;98562.22;;;9.54;100.00
15263;BME280;7733;51.554;13.590;2022-09-28T04:59:58;98551.88;;;9.51;100.00
15263;BME280;7733;51.554;13.590;2022-09-28T05:02:24;98553.47;;;9.55;100.00
15263;BME280;7733;51.554;13.590;2022-09-28T05:04:49;98549.78;;;9.37;100.00
15263;BME280;7733;51.554;13.590;2022-09-28T05:07:15;98554.50;;;9.51;100.00
15263;BME280;7733;51.554;13.590;2022-09-28T05:09:41;98553.84;;;9.45;100.00
15263;BME280;7733;51.554;13.590;2022-09-28T05:12:07;98553.84;;;9.45;100.00
15263;BME280;7733;51.554;13.590;2022-09-28T05:14:34;98543.31;;;9.47;100.00
15263;BME280;7733;51.554;13.590;2022-09-28T05:16:59;98540.06;;;9.40;100.00
15263;BME280;7733;51.554;13.590;2022-09-28T05:19:25;98528.00;;;9.36;100.00
15263;BME280;7733;51.554;13.590;2022-09-28T05:21:50;98521.88;;;9.37;100.00
15263;BME280;7733;51.554;13.590;2022-09-28T05:24:16;98532.47;;;9.34;100.00
15263;BME280;7733;51.554;13.590;2022-09-28T05:26:42;98525.91;;;9.46;100.00
15263;BME280;7733;51.554;13.590;2022-09-28T05:29:07;98535.97;;;9.33;100.00
15263;BME280;7733;51.554;13.590;2022-09-28T05:31:33;98515.44;;;9.24;100.00
15263;BME280;7733;51.554;13.590;2022-09-28T05:33:59;98518.78;;;9.28;100.00
15263;BME280;7733;51.554;13.590;2022-09-28T05:36:24;98518.97;;;9.45;100.00
15263;BME280;7733;51.554;13.590;2022-09-28T05:38:55;98516.22;;;9.48;100.00
15263;BME280;7733;51.554;13.590;2022-09-28T05:41:20;98515.19;;;9.30;100.00
15263;BME280;7733;51.554;13.590;2022-09-28T05:43:46;98521.88;;;9.37;100.00
15263;BME280;7733;51.554;13.590;2022-09-28T05:46:12;98518.91;;;9.47;100.00
15263;BME280;7733;51.554;13.590;2022-09-28T05:48:37;98526.56;;;9.29;100.00
15263;BME280;7733;51.554;13.590;2022-09-28T05:51:03;98523.22;;;9.48;100.00
15263;BME280;7733;51.554;13.590;2022-09-28T05:53:29;98533.94;;;9.41;100.00
15263;BME280;7733;51.554;13.590;2022-09-28T05:55:58;98515.19;;;9.52;100.00
15263;BME280;7733;51.554;13.590;2022-09-28T05:58:24;98509.47;;;9.42;100.00
15263;BME280;7733;51.554;13.590;2022-09-28T06:00:56;98500.06;;;9.15;100.00
15263;BME280;7733;51.554;13.590;2022-09-28T06:03:22;98497.53;;;9.35;100.00
15263;BME280;7733;51.554;13.590;2022-09-28T06:05:49;98497.47;;;9.37;100.00
15263;BME280;7733;51.554;13.590;2022-09-28T06:08:14;98501.63;;;9.42;100.00
15263;BME280;7733;51.554;13.590;2022-09-28T06:10:40;98503.00;;;9.29;100.00
15263;BME280;7733;51.554;13.590;2022-09-28T06:13:06;98496.44;;;9.41;100.00
15263;BME280;7733;51.554;13.590;2022-09-28T06:15:34;98498.44;;;9.56;100.00
15263;BME280;7733;51.554;13.590;2022-09-28T06:18:03;98496.69;;;9.57;100.00
15263;BME280;7733;51.554;13.590;2022-09-28T06:20:33;98491.94;;;9.44;100.00
15263;BME280;7733;51.554;13.590;2022-09-28T06:22:59;98493.59;;;9.47;100.00
15263;BME280;7733;51.554;13.590;2022-09-28T06:25:25;98490.66;;;9.33;100.00
15263;BME280;7733;51.554;13.590;2022-09-28T06:27:56;98492.72;;;9.68;100.00
15263;BME280;7733;51.554;13.590;2022-09-28T06:30:24;98491.69;;;9.72;100.00
15263;BME280;7733;51.554;13.590;2022-09-28T06:32:53;98489.72;;;9.77;100.00
15263;BME280;7733;51.554;13.590;2022-09-28T06:35:21;98481.63;;;9.84;100.00
15263;BME280;7733;51.554;13.590;2022-09-28T06:37:47;98485.34;;;9.98;100.00
15263;BME280;7733;51.554;13.590;2022-09-28T06:40:12;98475.56;;;10.03;100.00
15263;BME280;7733;51.554;13.590;2022-09-28T06:42:38;98466.94;;;9.80;100.00
15263;BME280;7733;51.554;13.590;2022-09-28T06:45:05;98472.78;;;9.86;100.00
15263;BME280;7733;51.554;13.590;2022-09-28T06:47:31;98475.41;;;10.06;100.00
15263;BME280;7733;51.554;13.590;2022-09-28T06:49:58;98470.75;;;10.13;100.00
15263;BME280;7733;51.554;13.590;2022-09-28T06:52:24;98476.97;;;10.11;100.00
15263;BME280;7733;51.554;13.590;2022-09-28T06:54:51;98470.09;;;10.08;100.00
15263;BME280;7733;51.554;13.590;2022-09-28T06:57:17;98478.69;;;10.12;100.00
15263;BME280;7733;51.554;13.590;2022-09-28T06:59:43;98474.16;;;10.15;100.00
15263;BME280;7733;51.554;13.590;2022-09-28T07:02:12;98472.94;;;10.24;100.00
15263;BME280;7733;51.554;13.590;2022-09-28T07:04:41;98473.38;;;10.13;100.00
15263;BME280;7733;51.554;13.590;2022-09-28T07:07:10;98474.66;;;10.25;100.00
15263;BME280;7733;51.554;13.590;2022-09-28T07:09:36;98472.16;;;10.42;100.00
15263;BME280;7733;51.554;13.590;2022-09-28T07:12:02;98475.28;;;10.50;100.00
15263;BME280;7733;51.554;13.590;2022-09-28T07:14:34;98478.41;;;10.18;100.00
15263;BME280;7733;51.554;13.590;2022-09-28T07:17:00;98490.44;;;10.44;100.00
15263;BME280;7733;51.554;13.590;2022-09-28T07:19:26;98495.69;;;10.23;100.00
15263;BME280;7733;51.554;13.590;2022-09-28T07:21:52;98491.81;;;10.32;100.00
15263;BME280;7733;51.554;13.590;2022-09-28T07:24:18;98488.25;;;10.72;100.00
15263;BME280;7733;51.554;13.590;2022-09-28T07:26:44;98490.41;;;10.64;100.00
15263;BME280;7733;51.554;13.590;2022-09-28T07:29:11;98493.09;;;10.62;100.00
15263;BME280;7733;51.554;13.590;2022-09-28T07:31:38;98484.66;;;10.75;100.00
15263;BME280;7733;51.554;13.590;2022-09-28T07:34:03;98474.59;;;10.84;100.00
15263;BME280;7733;51.554;13.590;2022-09-28T07:36:29;98485.81;;;10.88;100.00
15263;BME280;7733;51.554;13.590;2022-09-28T07:38:55;98484.38;;;10.81;100.00
15263;BME280;7733;51.554;13.590;2022-09-28T07:41:21;98482.09;;;10.73;100.00
15263;BME280;7733;51.554;13.590;2022-09-28T07:44:00;98488.34;;;11.08;100.00
15263;BME280;7733;51.554;13.590;2022-09-28T07:46:35;98497.63;;;10.96;100.00
15263;BME280;7733;51.554;13.590;2022-09-28T07:49:02;98491.97;;;11.06;100.00
15263;BME280;7733;51.554;13.590;2022-09-28T07:51:32;98492.91;;;11.05;100.00
15263;BME280;7733;51.554;13.590;2022-09-28T07:53:58;98499.25;;;10.99;100.00
15263;BME280;7733;51.554;13.590;2022-09-28T07:56:24;98494.84;;;11.00;100.00
15263;BME280;7733;51.554;13.590;2022-09-28T07:58:50;98496.22;;;11.08;100.00
15263;BME280;7733;51.554;13.590;2022-09-28T08:01:16;98492.69;;;11.09;100.00
15263;BME280;7733;51.554;13.590;2022-09-28T08:03:44;98489.50;;;11.21;100.00
15263;BME280;7733;51.554;13.590;2022-09-28T08:06:14;98487.91;;;11.17;100.00
15263;BME280;7733;51.554;13.590;2022-09-28T08:08:43;98489.81;;;11.33;100.00
15263;BME280;7733;51.554;13.590;2022-09-28T08:11:11;98474.69;;;11.38;100.00
15263;BME280;7733;51.554;13.590;2022-09-28T08:13:37;98484.34;;;11.37;100.00
15263;BME280;7733;51.554;13.590;2022-09-28T08:16:04;98481.22;;;11.48;100.00
15263;BME280;7733;51.554;13.590;2022-09-28T08:18:34;98486.63;;;11.45;100.00
15263;BME280;7733;51.554;13.590;2022-09-28T08:21:01;98487.44;;;11.09;100.00
15263;BME280;7733;51.554;13.590;2022-09-28T08:23:46;98489.03;;;11.31;100.00
15263;BME280;7733;51.554;13.590;2022-09-28T08:26:12;98488.16;;;11.49;100.00
15263;BME280;7733;51.554;13.590;2022-09-28T08:28:38;98488.72;;;11.55;100.00
15263;BME280;7733;51.554;13.590;2022-09-28T08:31:04;98493.09;;;11.55;100.00
15263;BME280;7733;51.554;13.590;2022-09-28T08:33:32;98494.97;;;11.53;100.00
15263;BME280;7733;51.554;13.590;2022-09-28T08:36:00;98491.66;;;11.49;100.00
15263;BME280;7733;51.554;13.590;2022-09-28T08:38:28;98493.09;;;11.55;100.00
15263;BME280;7733;51.554;13.590;2022-09-28T08:41:08;98494.34;;;11.48;100.00
15263;BME280;7733;51.554;13.590;2022-09-28T08:44:10;98499.28;;;11.54;100.00
15263;BME280;7733;51.554;13.590;2022-09-28T08:46:47;98493.25;;;11.52;100.00
15263;BME280;7733;51.554;13.590;2022-09-28T08:49:30;98490.81;;;11.66;100.00
15263;BME280;7733;51.554;13.590;2022-09-28T08:52:21;98493.78;;;11.41;100.00
15263;BME280;7733;51.554;13.590;2022-09-28T08:54:54;98490.06;;;11.64;100.00
15263;BME280;7733;51.554;13.590;2022-09-28T08:57:29;98480.91;;;11.54;100.00
15263;BME280;7733;51.554;13.590;2022-09-28T08:59:59;98493.16;;;11.72;100.00
15263;BME280;7733;51.554;13.590;2022-09-28T09:05:02;98491.84;;;11.64;100.00
15263;BME280;7733;51.554;13.590;2022-09-28T09:08:02;98490.97;;;11.82;100.00
15263;BME280;7733;51.554;13.590;2022-09-28T09:10:58;98492.34;;;11.89;100.00
15263;BME280;7733;51.554;13.590;2022-09-28T09:16:36;98484.16;;;12.12;100.00
15263;BME280;7733;51.554;13.590;2022-09-28T09:19:19;98479.75;;;12.13;100.00
15263;BME280;7733;51.554;13.590;2022-09-28T09:22:32;98478.38;;;11.88;100.00
15263;BME280;7733;51.554;13.590;2022-09-28T09:25:39;98490.88;;;12.01;100.00
15263;BME280;7733;51.554;13.590;2022-09-28T09:35:03;98490.56;;;11.90;100.00
15263;BME280;7733;51.554;13.590;2022-09-28T09:38:00;98495.06;;;11.87;100.00
15263;BME280;7733;51.554;13.590;2022-09-28T09:41:14;98487.56;;;12.14;100.00
15263;BME280;7733;51.554;13.590;2022-09-28T09:44:30;98489.31;;;12.31;100.00
15263;BME280;7733;51.554;13.590;2022-09-28T09:47:12;98490.84;;;12.35;100.00
15263;BME280;7733;51.554;13.590;2022-09-28T09:49:57;98495.06;;;12.22;100.00
15263;BME280;7733;51.554;13.590;2022-09-28T09:52:52;98493.66;;;12.15;100.00
15263;BME280;7733;51.554;13.590;2022-09-28T09:55:38;98483.63;;;12.23;100.00
15263;BME280;7733;51.554;13.590;2022-09-28T09:58:30;98487.88;;;12.26;100.00
15263;BME280;7733;51.554;13.590;2022-09-28T10:01:08;98489.09;;;12.18;100.00
15263;BME280;7733;51.554;13.590;2022-09-28T10:03:44;98484.41;;;12.08;100.00
15263;BME280;7733;51.554;13.590;2022-09-28T10:06:20;98485.78;;;12.15;100.00
15263;BME280;7733;51.554;13.590;2022-09-28T10:09:19;98491.69;;;12.36;100.00
15263;BME280;7733;51.554;13.590;2022-09-28T10:11:48;98483.91;;;12.34;100.00
15263;BME280;7733;51.554;13.590;2022-09-28T10:14:21;98489.03;;;12.03;100.00
15263;BME280;7733;51.554;13.590;2022-09-28T10:16:51;98488.25;;;12.18;100.00
15263;BME280;7733;51.554;13.590;2022-09-28T10:19:24;98487.53;;;12.32;100.00
15263;BME280;7733;51.554;13.590;2022-09-28T10:21:53;98486.00;;;12.10;100.00
15263;BME280;7733;51.554;13.590;2022-09-28T10:24:33;98489.16;;;12.34;100.00
15263;BME280;7733;51.554;13.590;2022-09-28T10:27:14;98487.72;;;12.11;100.00
15263;BME280;7733;51.554;13.590;2022-09-28T10:29:53;98491.25;;;12.61;100.00
15263;BME280;7733;51.554;13.590;2022-09-28T10:32:39;98489.16;;;12.34;100.00
15263;BME280;7733;51.554;13.590;2022-09-28T10:40:37;98483.38;;;12.28;100.00
15263;BME280;7733;51.554;13.590;2022-09-28T10:43:16;98485.75;;;12.32;100.00
15263;BME280;7733;51.554;13.590;2022-09-28T10:45:43;98480.34;;;12.35;100.00
15263;BME280;7733;51.554;13.590;2022-09-28T10:48:19;98482.25;;;12.49;100.00
15263;BME280;7733;51.554;13.590;2022-09-28T10:51:06;98478.56;;;12.69;100.00
15263;BME280;7733;51.554;13.590;2022-09-28T10:53:36;98483.78;;;12.53;100.00
15263;BME280;7733;51.554;13.590;2022-09-28T10:56:17;98482.41;;;12.46;100.00
15263;BME280;7733;51.554;13.590;2022-09-28T10:58:43;98479.06;;;11.56;100.00
15263;BME280;7733;51.554;13.590;2022-09-28T11:01:15;98481.31;;;11.82;100.00
15263;BME280;7733;51.554;13.590;2022-09-28T11:04:00;98482.63;;;11.72;100.00
15263;BME280;7733;51.554;13.590;2022-09-28T11:06:30;98473.31;;;12.18;100.00
15263;BME280;7733;51.554;13.590;2022-09-28T11:09:03;98477.53;;;12.05;100.00
15263;BME280;7733;51.554;13.590;2022-09-28T11:11:39;98479.88;;;11.39;100.00
15263;BME280;7733;51.554;13.590;2022-09-28T11:14:34;98476.13;;;11.45;100.00
15263;BME280;7733;51.554;13.590;2022-09-28T11:17:29;98477.91;;;11.44;100.00
15263;BME280;7733;51.554;13.590;2022-09-28T11:20:19;98468.28;;;11.62;100.00
15263;BME280;7733;51.554;13.590;2022-09-28T11:22:44;98465.00;;;11.57;100.00
15263;BME280;7733;51.554;13.590;2022-09-28T11:30:45;98472.09;;;11.19;100.00
15263;BME280;7733;51.554;13.590;2022-09-28T11:33:28;98466.31;;;11.48;100.00
15263;BME280;7733;51.554;13.590;2022-09-28T11:39:18;98469.66;;;11.69;100.00
15263;BME280;7733;51.554;13.590;2022-09-28T11:48:07;98463.56;;;12.21;100.00
15263;BME280;7733;51.554;13.590;2022-09-28T11:50:58;98473.81;;;12.09;100.00
15263;BME280;7733;51.554;13.590;2022-09-28T11:53:51;98479.97;;;12.26;100.00
15263;BME280;7733;51.554;13.590;2022-09-28T11:56:42;98477.09;;;12.47;100.00
15263;BME280;7733;51.554;13.590;2022-09-28T11:59:20;98477.75;;;12.84;100.00
15263;BME280;7733;51.554;13.590;2022-09-28T12:02:09;98481.97;;;12.38;100.00
15263;BME280;7733;51.554;13.590;2022-09-28T12:04:49;98486.63;;;12.66;100.00
15263;BME280;7733;51.554;13.590;2022-09-28T12:07:31;98492.19;;;11.92;100.00
15263;BME280;7733;51.554;13.590;2022-09-28T12:10:13;98486.38;;;12.37;100.00
15263;BME280;7733;51.554;13.590;2022-09-28T12:12:58;98497.34;;;12.45;100.00
15263;BME280;7733;51.554;13.590;2022-09-28T12:15:52;98493.19;;;12.24;100.00
15263;BME280;7733;51.554;13.590;2022-09-28T12:24:14;98486.50;;;12.52;98.03
15263;BME280;7733;51.554;13.590;2022-09-28T12:26:53;98493.69;;;12.65;97.32
15263;BME280;7733;51.554;13.590;2022-09-28T12:29:57;98488.59;;;12.62;99.94
15263;BME280;7733;51.554;13.590;2022-09-28T12:33:04;98492.91;;;12.63;98.11
15263;BME280;7733;51.554;13.590;2022-09-28T12:35:43;98490.50;;;12.59;98.84
15263;BME280;7733;51.554;13.590;2022-09-28T12:41:11;98500.84;;;12.46;98.53
15263;BME280;7733;51.554;13.590;2022-09-28T12:44:15;98497.66;;;12.39;96.88
15263;BME280;7733;51.554;13.590;2022-09-28T12:50:26;98503.41;;;11.77;100.00
15263;BME280;7733;51.554;13.590;2022-09-28T12:53:45;98503.16;;;11.83;100.00
15263;BME280;7733;51.554;13.590;2022-09-28T12:56:35;98508.00;;;11.54;99.56
15263;BME280;7733;51.554;13.590;2022-09-28T12:59:23;98519.28;;;11.56;98.65
15263;BME280;7733;51.554;13.590;2022-09-28T13:02:25;98521.75;;;11.59;99.55
15263;BME280;7733;51.554;13.590;2022-09-28T13:08:23;98520.53;;;11.31;100.00
15263;BME280;7733;51.554;13.590;2022-09-28T13:11:14;98523.53;;;11.42;100.00
15263;BME280;7733;51.554;13.590;2022-09-28T13:14:20;98525.16;;;11.44;100.00
15263;BME280;7733;51.554;13.590;2022-09-28T13:17:13;98517.19;;;11.46;100.00
15263;BME280;7733;51.554;13.590;2022-09-28T13:20:12;98525.41;;;11.38;100.00
15263;BME280;7733;51.554;13.590;2022-09-28T13:23:21;98523.72;;;11.37;100.00
15263;BME280;7733;51.554;13.590;2022-09-28T13:26:00;98530.81;;;11.35;100.00
15263;BME280;7733;51.554;13.590;2022-09-28T13:28:30;98530.66;;;11.38;100.00
15263;BME280;7733;51.554;13.590;2022-09-28T13:30:58;98529.34;;;11.11;100.00
15263;BME280;7733;51.554;13.590;2022-09-28T13:33:37;98520.00;;;11.60;100.00
15263;BME280;7733;51.554;13.590;2022-09-28T13:38:49;98531.59;;;11.37;100.00
15263;BME280;7733;51.554;13.590;2022-09-28T13:41:23;98522.75;;;11.57;100.00
15263;BME280;7733;51.554;13.590;2022-09-28T13:47:12;98534.13;;;11.39;100.00
15263;BME280;7733;51.554;13.590;2022-09-28T13:52:47;98549.34;;;11.13;100.00
15263;BME280;7733;51.554;13.590;2022-09-28T13:55:34;98543.66;;;11.04;100.00
15263;BME280;7733;51.554;13.590;2022-09-28T13:58:27;98548.88;;;11.60;100.00
15263;BME280;7733;51.554;13.590;2022-09-28T14:01:08;98551.72;;;11.55;100.00
15263;BME280;7733;51.554;13.590;2022-09-28T14:06:50;98568.34;;;11.18;100.00
15263;BME280;7733;51.554;13.590;2022-09-28T14:09:46;98562.53;;;11.31;100.00
15263;BME280;7733;51.554;13.590;2022-09-28T14:14:57;98573.03;;;11.31;100.00
15263;BME280;7733;51.554;13.590;2022-09-28T14:19:55;98579.13;;;11.50;100.00
15263;BME280;7733;51.554;13.590;2022-09-28T14:22:39;98581.38;;;11.39;100.00
15263;BME280;7733;51.554;13.590;2022-09-28T14:25:27;98578.84;;;11.37;100.00
15263;BME280;7733;51.554;13.590;2022-09-28T14:35:55;98584.84;;;11.39;99.04
15263;BME280;7733;51.554;13.590;2022-09-28T14:38:33;98583.28;;;11.73;95.76
15263;BME280;7733;51.554;13.590;2022-09-28T14:41:31;98587.38;;;11.97;94.24
15263;BME280;7733;51.554;13.590;2022-09-28T14:44:12;98590.31;;;11.72;96.57
15263;BME280;7733;51.554;13.590;2022-09-28T14:46:47;98601.69;;;11.54;98.01
15263;BME280;7733;51.554;13.590;2022-09-28T14:55:06;98600.28;;;11.47;99.50
15263;BME280;7733;51.554;13.590;2022-09-28T14:57:40;98603.81;;;11.65;99.01
15263;BME280;7733;51.554;13.590;2022-09-28T15:00:21;98598.97;;;11.74;99.57
15263;BME280;7733;51.554;13.590;2022-09-28T15:02:50;98598.97;;;11.74;99.59
15263;BME280;7733;51.554;13.590;2022-09-28T15:05:34;98600.13;;;11.50;99.68
15263;BME280;7733;51.554;13.590;2022-09-28T15:08:02;98608.94;;;11.68;99.72
15263;BME280;7733;51.554;13.590;2022-09-28T15:10:35;98611.31;;;11.72;99.79
15263;BME280;7733;51.554;13.590;2022-09-28T15:13:15;98607.31;;;11.46;100.00
15263;BME280;7733;51.554;13.590;2022-09-28T15:15:50;98614.72;;;11.74;98.95
15263;BME280;7733;51.554;13.590;2022-09-28T15:18:29;98618.72;;;11.64;99.20
15263;BME280;7733;51.554;13.590;2022-09-28T15:20:59;98616.28;;;11.41;100.00